createdAt,value
2023-01-20T00:00:13.686Z,11.86
2023-01-20T00:03:04.488Z,11.78
2023-01-20T00:05:35.207Z,11.75
2023-01-20T00:08:06.276Z,11.76
2023-01-20T00:10:36.885Z,11.75
2023-01-20T00:13:07.704Z,11.75
2023-01-20T00:15:38.389Z,11.75
2023-01-20T00:18:09.199Z,11.76
2023-01-20T00:20:39.985Z,11.77
2023-01-20T00:23:10.795Z,11.78
2023-01-20T00:25:41.585Z,11.78
2023-01-20T00:28:12.413Z,11.77
2023-01-20T00:30:43.168Z,11.76
2023-01-20T00:33:14.034Z,11.74
2023-01-20T00:35:44.685Z,11.72
2023-01-20T00:38:17.809Z,11.67
2023-01-20T00:40:50.860Z,11.66
2023-01-20T00:43:21.755Z,11.65
2023-01-20T00:45:52.536Z,11.61
2023-01-20T00:48:23.338Z,11.58
2023-01-20T00:50:54.048Z,11.53
2023-01-20T00:53:24.733Z,11.47
2023-01-20T00:55:55.621Z,11.43
2023-01-20T00:58:26.260Z,11.41
2023-01-20T01:00:58.926Z,11.40
2023-01-20T01:03:30.145Z,11.37
2023-01-20T01:06:08.268Z,11.33
2023-01-20T01:08:39.401Z,11.32
2023-01-20T01:11:10.212Z,11.27
2023-01-20T01:13:41.077Z,11.15
2023-01-20T01:16:15.298Z,11.08
2023-01-20T01:18:46.412Z,11.08
2023-01-20T01:21:17.650Z,11.10
2023-01-20T01:23:48.431Z,11.08
2023-01-20T01:26:19.175Z,11.04
2023-01-20T01:28:50.615Z,11.01
2023-01-20T01:31:22.276Z,10.99
2023-01-20T01:33:53.301Z,10.99
2023-01-20T01:36:24.033Z,10.98
2023-01-20T01:38:57.888Z,10.99
2023-01-20T01:41:30.150Z,10.98
2023-01-20T01:44:08.465Z,10.93
2023-01-20T01:46:39.428Z,10.89
2023-01-20T01:49:13.327Z,10.87
2023-01-20T01:51:44.450Z,10.87
2023-01-20T01:54:16.409Z,10.88
2023-01-20T01:56:47.395Z,10.88
2023-01-20T01:59:18.078Z,10.87
2023-01-20T02:01:50.209Z,10.86
2023-01-20T02:04:22.375Z,10.80
2023-01-20T02:06:54.223Z,10.74
2023-01-20T02:09:25.025Z,10.72
2023-01-20T02:11:57.327Z,10.72
2023-01-20T02:14:28.382Z,10.73
2023-01-20T02:17:00.589Z,10.73
2023-01-20T02:19:44.649Z,10.70
2023-01-20T02:22:18.043Z,10.66
2023-01-20T02:25:06.590Z,10.66
2023-01-20T02:27:42.406Z,10.66
2023-01-20T02:30:22.423Z,10.66
2023-01-20T02:32:53.936Z,10.64
2023-01-20T02:35:25.995Z,10.63
2023-01-20T02:38:00.206Z,10.65
2023-01-20T02:40:32.016Z,10.64
2023-01-20T02:43:05.075Z,10.63
2023-01-20T02:45:37.232Z,10.62
2023-01-20T02:48:09.722Z,10.62
2023-01-20T02:50:41.681Z,10.63
2023-01-20T02:53:12.542Z,10.63
2023-01-20T02:55:44.041Z,10.60
2023-01-20T02:58:15.735Z,10.61
2023-01-20T03:00:48.749Z,10.62
2023-01-20T03:03:20.079Z,10.63
2023-01-20T03:05:53.247Z,10.67
2023-01-20T03:08:24.565Z,10.71
2023-01-20T03:10:55.825Z,10.73
2023-01-20T03:13:27.655Z,10.75
2023-01-20T03:15:59.615Z,10.77
2023-01-20T03:18:31.155Z,10.79
2023-01-20T03:21:02.094Z,10.84
2023-01-20T03:23:33.513Z,10.87
2023-01-20T03:26:06.617Z,10.90
2023-01-20T03:28:37.317Z,10.95
2023-01-20T03:31:11.690Z,10.97
2023-01-20T03:33:42.610Z,10.97
2023-01-20T03:36:13.413Z,10.97
2023-01-20T03:38:44.324Z,10.96
2023-01-20T03:41:18.530Z,10.96
2023-01-20T03:43:54.073Z,10.98
2023-01-20T03:46:25.835Z,10.97
2023-01-20T03:48:59.133Z,10.98
2023-01-20T03:51:31.588Z,11.00
2023-01-20T03:54:02.892Z,11.03
2023-01-20T03:56:36.911Z,11.06
2023-01-20T03:59:07.683Z,11.08
2023-01-20T04:01:40.035Z,11.09
2023-01-20T04:04:11.327Z,11.08
2023-01-20T04:06:42.298Z,11.08
2023-01-20T04:09:14.838Z,11.08
2023-01-20T04:11:45.757Z,11.09
2023-01-20T04:14:16.502Z,11.11
2023-01-20T04:16:51.977Z,11.12
2023-01-20T04:19:22.715Z,11.14
2023-01-20T04:21:55.091Z,11.16
2023-01-20T04:24:27.552Z,11.18
2023-01-20T04:26:58.894Z,11.20
2023-01-20T04:29:30.242Z,11.24
2023-01-20T04:32:02.073Z,11.30
2023-01-20T04:34:33.660Z,11.38
2023-01-20T04:37:05.851Z,11.47
2023-01-20T04:39:37.386Z,11.54
2023-01-20T04:42:08.840Z,11.60
2023-01-20T04:44:40.210Z,11.66
2023-01-20T04:47:11.548Z,11.72
2023-01-20T04:49:43.121Z,11.77
2023-01-20T04:52:14.733Z,11.77
2023-01-20T04:54:46.095Z,11.77
2023-01-20T04:57:17.524Z,11.78
2023-01-20T04:59:50.040Z,11.78
2023-01-20T05:02:21.760Z,11.77
2023-01-20T05:04:54.088Z,11.78
2023-01-20T05:07:25.465Z,11.82
2023-01-20T05:09:56.772Z,11.85
2023-01-20T05:12:28.346Z,11.88
2023-01-20T05:14:59.822Z,11.92
2023-01-20T05:17:31.227Z,11.95
2023-01-20T05:20:02.833Z,11.98
2023-01-20T05:22:34.861Z,12.03
2023-01-20T05:25:07.012Z,12.09
2023-01-20T05:27:38.713Z,12.13
2023-01-20T05:30:11.500Z,12.17
2023-01-20T05:32:42.857Z,12.22
2023-01-20T05:35:40.393Z,12.26
2023-01-20T05:38:11.931Z,12.30
2023-01-20T05:40:43.512Z,12.33
2023-01-20T05:43:15.982Z,12.36
2023-01-20T05:45:47.231Z,12.41
2023-01-20T05:48:18.692Z,12.42
2023-01-20T05:50:50.113Z,12.45
2023-01-20T05:53:23.252Z,12.46
2023-01-20T05:56:02.165Z,12.44
2023-01-20T05:58:34.444Z,12.43
2023-01-20T06:01:09.342Z,12.41
2023-01-20T06:03:40.967Z,12.40
2023-01-20T06:06:15.772Z,12.41
2023-01-20T06:08:47.354Z,12.43
2023-01-20T06:11:19.239Z,12.43
2023-01-20T06:13:50.868Z,12.42
2023-01-20T06:16:22.610Z,12.43
2023-01-20T06:18:54.365Z,12.46
2023-01-20T06:21:49.729Z,12.48
2023-01-20T06:24:21.619Z,12.51
2023-01-20T06:26:53.122Z,12.55
2023-01-20T06:29:25.291Z,12.58
2023-01-20T06:31:56.831Z,12.61
2023-01-20T06:34:29.997Z,12.66
2023-01-20T06:37:02.461Z,12.69
2023-01-20T06:39:34.110Z,12.73
2023-01-20T06:42:06.209Z,12.75
2023-01-20T06:44:38.037Z,12.77
2023-01-20T06:47:09.834Z,12.81
2023-01-20T06:49:41.519Z,12.84
2023-01-20T06:52:36.995Z,12.87
2023-01-20T06:55:09.183Z,12.92
2023-01-20T06:57:41.361Z,12.97
2023-01-20T07:00:14.990Z,12.99
2023-01-20T07:02:46.252Z,13.01
2023-01-20T07:05:17.956Z,13.02
2023-01-20T07:07:50.245Z,13.05
2023-01-20T07:10:22.159Z,13.06
2023-01-20T07:12:53.625Z,13.11
2023-01-20T07:15:25.205Z,13.14
2023-01-20T07:17:56.722Z,13.16
2023-01-20T07:20:28.486Z,13.20
2023-01-20T07:23:02.130Z,13.24
2023-01-20T07:25:34.984Z,13.27
2023-01-20T07:28:06.528Z,13.31
2023-01-20T07:30:38.169Z,13.35
2023-01-20T07:33:09.723Z,13.42
2023-01-20T07:35:41.608Z,13.47
2023-01-20T07:38:13.394Z,13.53
2023-01-20T07:40:46.027Z,13.56
2023-01-20T07:43:17.564Z,13.59
2023-01-20T07:45:49.147Z,13.61
2023-01-20T07:48:21.228Z,13.64
2023-01-20T07:50:57.983Z,13.65
2023-01-20T07:53:29.726Z,13.69
2023-01-20T07:56:03.176Z,13.72
2023-01-20T07:58:34.930Z,13.73
2023-01-20T08:01:11.762Z,13.76
2023-01-20T08:03:45.965Z,13.76
2023-01-20T08:06:21.600Z,13.74
2023-01-20T08:08:53.249Z,13.75
2023-01-20T08:11:24.902Z,13.76
2023-01-20T08:13:56.412Z,13.76
2023-01-20T08:16:28.207Z,13.76
2023-01-20T08:18:59.436Z,13.78
2023-01-20T08:21:32.064Z,13.79
2023-01-20T08:24:04.735Z,13.81
2023-01-20T08:26:37.083Z,13.85
2023-01-20T08:29:09.617Z,13.90
2023-01-20T08:31:41.630Z,13.92
2023-01-20T08:34:13.547Z,13.95
2023-01-20T08:36:45.164Z,13.97
2023-01-20T08:39:18.664Z,14.00
2023-01-20T08:41:52.066Z,14.04
2023-01-20T08:44:23.442Z,14.08
2023-01-20T08:46:58.288Z,14.12
2023-01-20T08:49:29.843Z,14.16
2023-01-20T08:52:01.989Z,14.18
2023-01-20T08:54:34.796Z,14.20
2023-01-20T08:57:06.275Z,14.23
2023-01-20T08:59:37.526Z,14.24
2023-01-20T09:02:10.548Z,14.25
2023-01-20T09:04:42.205Z,14.26
2023-01-20T09:07:13.933Z,14.26
2023-01-20T09:09:45.514Z,14.27
2023-01-20T09:12:18.032Z,14.27
2023-01-20T09:14:49.423Z,14.26
2023-01-20T09:17:21.240Z,14.26
2023-01-20T09:19:52.989Z,14.28
2023-01-20T09:22:24.390Z,14.28
2023-01-20T09:24:55.663Z,14.28
2023-01-20T09:27:27.123Z,14.29
2023-01-20T09:29:58.687Z,14.30
2023-01-20T09:32:30.239Z,14.31
2023-01-20T09:35:01.517Z,14.31
2023-01-20T09:37:50.553Z,14.32
2023-01-20T09:40:40.376Z,14.33
2023-01-20T09:43:34.372Z,14.34
2023-01-20T09:46:09.204Z,14.35
2023-01-20T09:49:00.685Z,14.37
2023-01-20T09:51:50.305Z,14.40
2023-01-20T09:54:22.358Z,14.42
2023-01-20T09:56:54.004Z,14.42
2023-01-20T09:59:26.563Z,14.44
2023-01-20T10:01:58.628Z,14.46
2023-01-20T10:04:33.230Z,14.48
2023-01-20T10:07:08.438Z,14.48
2023-01-20T10:09:41.885Z,14.50
2023-01-20T10:12:14.605Z,14.50
2023-01-20T10:14:46.742Z,14.54
2023-01-20T10:17:19.537Z,14.55
2023-01-20T10:19:51.848Z,14.61
2023-01-20T10:22:24.282Z,14.68
2023-01-20T10:24:56.658Z,14.76
2023-01-20T10:27:28.262Z,14.80
2023-01-20T10:30:00.466Z,14.83
2023-01-20T10:32:33.535Z,14.88
2023-01-20T10:35:09.042Z,14.91
2023-01-20T10:37:40.455Z,14.90
2023-01-20T10:40:17.275Z,14.90
2023-01-20T10:42:49.493Z,14.94
2023-01-20T10:45:21.378Z,15.02
2023-01-20T10:47:53.639Z,15.11
2023-01-20T10:50:28.619Z,15.24
2023-01-20T10:53:19.169Z,15.43
2023-01-20T10:55:57.234Z,15.63
2023-01-20T10:58:30.066Z,15.79
2023-01-20T11:01:02.984Z,15.89
2023-01-20T11:03:35.910Z,15.94
2023-01-20T11:06:07.723Z,16.00
2023-01-20T11:08:38.979Z,16.06
2023-01-20T11:11:12.810Z,16.08
2023-01-20T11:13:44.707Z,16.10
2023-01-20T11:16:18.151Z,16.09
2023-01-20T11:18:57.338Z,16.10
2023-01-20T11:21:30.017Z,16.10
2023-01-20T11:24:01.574Z,16.06
2023-01-20T11:26:36.060Z,16.05
2023-01-20T11:29:26.037Z,16.00
2023-01-20T11:31:57.521Z,15.95
2023-01-20T11:34:29.364Z,15.90
2023-01-20T11:40:06.147Z,15.91
2023-01-20T11:42:44.974Z,15.87
2023-01-20T11:45:26.672Z,15.86
2023-01-20T11:48:02.037Z,15.87
2023-01-20T11:50:35.392Z,15.87
2023-01-20T11:53:28.603Z,15.84
2023-01-20T11:55:59.990Z,15.82
2023-01-20T11:58:33.404Z,15.79
2023-01-20T12:01:05.405Z,15.78
2023-01-20T12:03:40.504Z,15.77
2023-01-20T12:06:14.202Z,15.77
2023-01-20T12:08:46.921Z,15.76
2023-01-20T12:11:18.704Z,15.75
2023-01-20T12:14:11.368Z,15.74
2023-01-20T12:16:42.223Z,15.74
2023-01-20T12:19:15.105Z,15.73
2023-01-20T12:21:47.551Z,15.71
2023-01-20T12:24:20.263Z,15.71
2023-01-20T12:26:51.115Z,15.71
2023-01-20T12:29:23.025Z,15.71
2023-01-20T12:31:54.695Z,15.73
2023-01-20T12:34:27.693Z,15.74
2023-01-20T12:37:02.004Z,15.75
2023-01-20T12:39:45.130Z,15.76
2023-01-20T12:42:29.798Z,15.77
2023-01-20T12:45:01.221Z,15.78
2023-01-20T12:47:39.042Z,15.79
2023-01-20T12:50:15.574Z,15.80
2023-01-20T12:52:50.116Z,15.84
2023-01-20T12:55:23.849Z,15.89
2023-01-20T12:57:57.699Z,15.93
2023-01-20T13:00:48.001Z,15.99
2023-01-20T13:03:24.927Z,16.08
2023-01-20T13:06:09.084Z,16.18
2023-01-20T13:08:41.865Z,16.29
2023-01-20T13:11:15.854Z,16.35
2023-01-20T13:13:57.342Z,16.37
2023-01-20T13:16:32.813Z,16.36
2023-01-20T13:19:07.297Z,16.32
2023-01-20T13:21:38.078Z,16.28
2023-01-20T13:24:09.060Z,16.25
2023-01-20T13:26:40.187Z,16.25
2023-01-20T13:29:14.920Z,16.27
2023-01-20T13:31:46.526Z,16.29
2023-01-20T13:34:37.106Z,16.27
2023-01-20T13:37:23.592Z,16.24
2023-01-20T13:39:55.676Z,16.20
2023-01-20T13:42:30.246Z,16.16
2023-01-20T13:45:20.188Z,16.13
2023-01-20T13:47:52.647Z,16.10
2023-01-20T13:50:25.085Z,16.07
2023-01-20T13:53:06.205Z,16.04
2023-01-20T13:55:52.813Z,16.02
2023-01-20T13:58:23.947Z,15.99
2023-01-20T14:00:56.222Z,15.94
2023-01-20T14:03:29.133Z,15.89
2023-01-20T14:06:01.017Z,15.83
2023-01-20T14:08:32.305Z,15.78
2023-01-20T14:11:08.030Z,15.72
2023-01-20T14:13:38.759Z,15.63
2023-01-20T14:16:18.198Z,15.55
2023-01-20T14:18:49.060Z,15.47
2023-01-20T14:21:21.693Z,15.39
2023-01-20T14:23:52.638Z,15.32
2023-01-20T14:26:24.184Z,15.25
2023-01-20T14:28:55.375Z,15.20
2023-01-20T14:31:36.764Z,15.15
2023-01-20T14:34:23.469Z,15.10
2023-01-20T14:36:54.985Z,15.06
2023-01-20T14:39:25.905Z,15.02
2023-01-20T14:41:57.007Z,14.97
2023-01-20T14:44:29.447Z,14.93
2023-01-20T14:47:01.922Z,14.90
2023-01-20T14:49:34.178Z,14.86
2023-01-20T14:52:05.299Z,14.82
2023-01-20T14:54:37.429Z,14.77
2023-01-20T14:57:26.371Z,14.71
2023-01-20T15:00:19.835Z,14.63
2023-01-20T15:03:05.315Z,14.57
2023-01-20T15:05:41.944Z,14.52
2023-01-20T15:08:24.522Z,14.47
2023-01-20T15:11:12.130Z,14.43
2023-01-20T15:13:43.435Z,14.38
2023-01-20T15:16:19.259Z,14.36
2023-01-20T15:19:04.421Z,14.31
2023-01-20T15:21:36.514Z,14.28
2023-01-20T15:24:10.184Z,14.26
2023-01-20T15:26:41.003Z,14.25
2023-01-20T15:29:19.982Z,14.20
2023-01-20T15:31:51.435Z,14.12
2023-01-20T15:34:23.044Z,14.05
2023-01-20T15:36:55.204Z,14.00
2023-01-20T15:39:29.374Z,13.94
2023-01-20T15:42:01.652Z,13.89
2023-01-20T15:44:32.380Z,13.83
2023-01-20T15:47:03.313Z,13.78
2023-01-20T15:49:34.089Z,13.72
2023-01-20T15:52:04.977Z,13.66
2023-01-20T15:54:35.873Z,13.61
2023-01-20T15:57:06.605Z,13.56
2023-01-20T15:59:37.365Z,13.50
2023-01-20T16:02:10.926Z,13.44
2023-01-20T16:04:41.967Z,13.38
2023-01-20T16:07:13.584Z,13.32
2023-01-20T16:09:45.015Z,13.27
2023-01-20T16:12:16.053Z,13.22
2023-01-20T16:14:47.058Z,13.17
2023-01-20T16:17:19.257Z,13.12
2023-01-20T16:19:50.550Z,13.07
2023-01-20T16:22:21.250Z,13.03
2023-01-20T16:24:52.747Z,12.99
2023-01-20T16:27:23.844Z,12.94
2023-01-20T16:29:56.145Z,12.90
2023-01-20T16:32:27.281Z,12.86
2023-01-20T16:34:58.993Z,12.82
2023-01-20T16:37:29.823Z,12.78
2023-01-20T16:40:01.055Z,12.73
2023-01-20T16:42:32.191Z,12.67
2023-01-20T16:45:03.046Z,12.63
2023-01-20T16:47:33.837Z,12.60
2023-01-20T16:50:04.707Z,12.58
2023-01-20T16:52:35.492Z,12.56
2023-01-20T16:55:06.962Z,12.54
2023-01-20T16:57:37.825Z,12.51
2023-01-20T17:00:10.248Z,12.49
2023-01-20T17:02:41.066Z,12.46
2023-01-20T17:05:14.016Z,12.42
2023-01-20T17:07:44.806Z,12.40
2023-01-20T17:10:16.294Z,12.37
2023-01-20T17:12:48.908Z,12.33
2023-01-20T17:15:20.022Z,12.31
2023-01-20T17:17:51.169Z,12.29
2023-01-20T17:20:22.001Z,12.28
2023-01-20T17:22:53.256Z,12.27
2023-01-20T17:25:24.258Z,12.24
2023-01-20T17:27:55.237Z,12.22
2023-01-20T17:30:26.720Z,12.20
2023-01-20T17:32:57.732Z,12.19
2023-01-20T17:35:29.318Z,12.19
2023-01-20T17:38:00.224Z,12.19
2023-01-20T17:40:31.990Z,12.11
2023-01-20T17:43:04.466Z,11.99
2023-01-20T17:45:35.353Z,11.88
2023-01-20T17:48:06.316Z,11.79
2023-01-20T17:50:39.067Z,11.73
2023-01-20T17:53:10.329Z,11.67
2023-01-20T17:55:41.251Z,11.58
2023-01-20T17:58:13.676Z,11.51
2023-01-20T18:00:44.532Z,11.45
2023-01-20T18:03:16.257Z,11.40
2023-01-20T18:05:47.167Z,11.37
2023-01-20T18:08:17.838Z,11.33
2023-01-20T18:10:48.728Z,11.33
2023-01-20T18:13:19.463Z,11.35
2023-01-20T18:15:50.308Z,11.32
2023-01-20T18:18:21.060Z,11.28
2023-01-20T18:20:52.035Z,11.27
2023-01-20T18:23:22.729Z,11.24
2023-01-20T18:25:56.761Z,11.25
2023-01-20T18:28:28.548Z,11.24
2023-01-20T18:31:03.299Z,11.22
2023-01-20T18:33:34.340Z,11.21
2023-01-20T18:36:05.440Z,11.20
2023-01-20T18:38:36.297Z,11.22
2023-01-20T18:41:07.349Z,11.18
2023-01-20T18:43:38.149Z,10.99
2023-01-20T18:46:10.373Z,10.68
2023-01-20T18:48:41.346Z,10.32
2023-01-20T18:51:14.988Z,10.03
2023-01-20T18:53:46.215Z,9.72
2023-01-20T18:56:19.066Z,9.52
2023-01-20T18:58:49.848Z,9.46
2023-01-20T19:01:21.238Z,9.39
2023-01-20T19:03:52.411Z,9.28
2023-01-20T19:06:23.627Z,9.21
2023-01-20T19:08:54.425Z,9.21
2023-01-20T19:11:26.271Z,9.19
2023-01-20T19:13:57.081Z,9.13
2023-01-20T19:16:28.502Z,9.02
2023-01-20T19:18:59.948Z,8.88
2023-01-20T19:21:34.176Z,8.74
2023-01-20T19:24:08.007Z,8.61
2023-01-20T19:26:39.287Z,8.54
2023-01-20T19:29:13.008Z,8.52
2023-01-20T19:31:44.122Z,8.45
2023-01-20T19:34:14.998Z,8.42
2023-01-20T19:36:46.052Z,8.38
2023-01-20T19:39:17.064Z,8.28
2023-01-20T19:41:48.102Z,8.23
2023-01-20T19:44:19.329Z,8.17
2023-01-20T19:46:50.103Z,8.17
2023-01-20T19:49:20.967Z,8.16
2023-01-20T19:51:51.823Z,8.08
2023-01-20T19:54:24.415Z,8.02
2023-01-20T19:56:55.332Z,7.99
2023-01-20T19:59:26.196Z,7.95
2023-01-20T20:01:57.115Z,7.91
2023-01-20T20:04:29.349Z,7.85
2023-01-20T20:07:00.185Z,7.75
2023-01-20T20:09:31.122Z,7.66
2023-01-20T20:12:06.275Z,7.62
2023-01-20T20:14:38.381Z,7.58
2023-01-20T20:17:09.321Z,7.53
2023-01-20T20:19:40.147Z,7.51
2023-01-20T20:22:11.019Z,7.53
2023-01-20T20:24:41.923Z,7.50
2023-01-20T20:27:12.937Z,7.40
2023-01-20T20:29:44.135Z,7.38
2023-01-20T20:32:16.859Z,7.38
2023-01-20T20:34:47.706Z,7.36
2023-01-20T20:37:18.406Z,7.27
2023-01-20T20:39:49.337Z,7.17
2023-01-20T20:42:20.128Z,7.03
2023-01-20T20:44:50.881Z,6.89
2023-01-20T20:47:21.657Z,6.78
2023-01-20T20:49:53.035Z,6.66
2023-01-20T20:52:24.139Z,6.48
2023-01-20T20:54:56.228Z,6.33
2023-01-20T20:57:27.186Z,6.21
2023-01-20T20:59:59.696Z,6.09
2023-01-20T21:02:30.830Z,6.02
2023-01-20T21:05:01.552Z,5.91
2023-01-20T21:07:32.433Z,5.81
2023-01-20T21:10:04.784Z,5.73
2023-01-20T21:12:35.685Z,5.62
2023-01-20T21:15:07.700Z,5.48
2023-01-20T21:17:38.692Z,5.32
2023-01-20T21:20:10.589Z,5.21
2023-01-20T21:22:41.607Z,5.09
2023-01-20T21:25:12.530Z,4.94
2023-01-20T21:27:45.165Z,4.91
2023-01-20T21:30:16.461Z,4.98
2023-01-20T21:32:47.375Z,5.01
2023-01-20T21:35:18.213Z,5.00
2023-01-20T21:37:54.374Z,4.92
2023-01-20T21:40:25.044Z,4.83
2023-01-20T21:43:17.243Z,4.81
2023-01-20T21:45:54.144Z,4.86
2023-01-20T21:48:43.099Z,4.91
2023-01-20T21:51:31.571Z,4.92
2023-01-20T21:54:02.490Z,4.89
2023-01-20T21:56:33.141Z,4.88
2023-01-20T21:59:03.948Z,4.89
2023-01-20T22:01:34.833Z,4.92
2023-01-20T22:04:05.713Z,4.91
2023-01-20T22:06:36.441Z,4.90
2023-01-20T22:09:07.262Z,4.88
2023-01-20T22:11:37.968Z,4.88
2023-01-20T22:14:08.786Z,4.86
2023-01-20T22:16:39.647Z,4.81
2023-01-20T22:19:12.830Z,4.76
2023-01-20T22:21:43.543Z,4.69
2023-01-20T22:24:14.414Z,4.69
2023-01-20T22:26:46.779Z,4.70
2023-01-20T22:29:17.752Z,4.70
2023-01-20T22:31:51.530Z,4.70
2023-01-20T22:34:23.143Z,4.67
2023-01-20T22:36:55.819Z,4.62
2023-01-20T22:39:27.856Z,4.60
2023-01-20T22:41:59.365Z,4.55
2023-01-20T22:44:30.828Z,4.55
2023-01-20T22:47:02.187Z,4.62
2023-01-20T22:49:33.775Z,4.62
2023-01-20T22:52:05.390Z,4.59
2023-01-20T22:54:36.799Z,4.52
2023-01-20T22:57:07.999Z,4.48
2023-01-20T22:59:39.587Z,4.46
2023-01-20T23:02:10.989Z,4.47
2023-01-20T23:04:42.707Z,4.45
2023-01-20T23:07:14.458Z,4.44
2023-01-20T23:09:46.541Z,4.45
2023-01-20T23:12:17.828Z,4.42
2023-01-20T23:15:02.801Z,4.37
2023-01-20T23:17:34.778Z,4.39
2023-01-20T23:20:06.942Z,4.38
2023-01-20T23:22:38.137Z,4.39
2023-01-20T23:25:10.549Z,4.40
2023-01-20T23:27:41.967Z,4.46
2023-01-20T23:30:14.343Z,4.50
2023-01-20T23:32:46.195Z,4.47
2023-01-20T23:35:17.687Z,4.46
2023-01-20T23:37:49.764Z,4.46
2023-01-20T23:40:21.748Z,4.44
2023-01-20T23:42:53.130Z,4.37
2023-01-20T23:45:24.697Z,4.32
2023-01-20T23:47:56.060Z,4.27
2023-01-20T23:50:27.389Z,4.23
2023-01-20T23:52:59.183Z,4.20
2023-01-20T23:55:30.807Z,4.18
2023-01-20T23:58:02.303Z,4.11
